createdAt,value
2023-05-21T00:00:10.680Z,17.72
2023-05-21T00:03:16.356Z,17.68
2023-05-21T00:06:20.810Z,17.67
2023-05-21T00:09:22.516Z,17.65
2023-05-21T00:12:24.119Z,17.64
2023-05-21T00:15:25.738Z,17.62
2023-05-21T00:18:27.260Z,17.59
2023-05-21T00:21:29.664Z,17.58
2023-05-21T00:24:31.201Z,17.55
2023-05-21T00:27:32.703Z,17.53
2023-05-21T00:30:34.222Z,17.50
2023-05-21T00:33:35.765Z,17.51
2023-05-21T00:36:38.017Z,17.51
2023-05-21T00:39:39.728Z,17.53
2023-05-21T00:42:41.592Z,17.60
2023-05-21T00:45:44.477Z,17.67
2023-05-21T00:48:47.486Z,17.72
2023-05-21T00:51:49.649Z,17.79
2023-05-21T00:54:52.180Z,17.85
2023-05-21T00:57:53.857Z,17.87
2023-05-21T01:00:56.499Z,17.91
2023-05-21T01:03:59.703Z,17.95
2023-05-21T01:07:01.892Z,17.97
2023-05-21T01:10:08.576Z,18.02
2023-05-21T01:13:10.168Z,18.01
2023-05-21T01:16:13.634Z,18.04
2023-05-21T01:19:23.833Z,18.07
2023-05-21T01:22:28.519Z,18.08
2023-05-21T01:25:30.332Z,18.08
2023-05-21T01:28:34.356Z,18.10
2023-05-21T01:31:55.450Z,18.13
2023-05-21T01:35:05.108Z,18.13
2023-05-21T01:38:22.664Z,18.15
2023-05-21T01:41:26.330Z,18.14
2023-05-21T01:44:28.835Z,18.15
2023-05-21T01:47:31.964Z,18.15
2023-05-21T01:50:35.433Z,18.15
2023-05-21T01:53:38.824Z,18.16
2023-05-21T01:56:40.420Z,18.16
2023-05-21T01:59:42.021Z,18.15
2023-05-21T02:02:43.631Z,18.16
2023-05-21T02:05:45.887Z,18.16
2023-05-21T02:08:48.297Z,18.17
2023-05-21T02:11:49.928Z,18.16
2023-05-21T02:14:51.633Z,18.16
2023-05-21T02:17:53.307Z,18.17
2023-05-21T02:20:54.880Z,18.18
2023-05-21T02:23:56.430Z,18.17
2023-05-21T02:26:58.583Z,18.18
2023-05-21T02:30:00.330Z,18.19
2023-05-21T02:33:02.840Z,18.18
2023-05-21T02:36:04.966Z,18.18
2023-05-21T02:39:06.607Z,18.18
2023-05-21T02:42:08.206Z,18.18
2023-05-21T02:45:11.789Z,18.18
2023-05-21T02:48:15.915Z,18.18
2023-05-21T02:51:17.563Z,18.17
2023-05-21T02:54:19.235Z,18.18
2023-05-21T02:57:20.878Z,18.18
2023-05-21T03:00:22.547Z,18.17
2023-05-21T03:03:24.397Z,18.17
2023-05-21T03:06:26.091Z,18.16
2023-05-21T03:09:28.087Z,18.16
2023-05-21T03:12:31.975Z,18.15
2023-05-21T03:15:35.018Z,18.15
2023-05-21T03:18:36.765Z,18.14
2023-05-21T03:21:38.474Z,18.14
2023-05-21T03:24:41.359Z,18.13
2023-05-21T03:27:43.792Z,18.13
2023-05-21T03:31:08.130Z,18.13
2023-05-21T03:34:09.699Z,18.12
2023-05-21T03:37:11.396Z,18.11
2023-05-21T03:40:13.687Z,18.11
2023-05-21T03:43:16.652Z,18.10
2023-05-21T03:46:18.417Z,18.09
2023-05-21T03:49:34.398Z,18.10
2023-05-21T03:52:36.206Z,18.11
2023-05-21T03:55:38.340Z,18.10
2023-05-21T03:58:40.804Z,18.09
2023-05-21T04:01:42.648Z,18.09
2023-05-21T04:04:51.614Z,18.09
2023-05-21T04:07:54.234Z,18.09
2023-05-21T04:10:55.798Z,18.09
2023-05-21T04:13:57.639Z,18.09
2023-05-21T04:16:59.159Z,18.08
2023-05-21T04:20:01.233Z,18.09
2023-05-21T04:23:04.956Z,18.10
2023-05-21T04:26:07.577Z,18.08
2023-05-21T04:29:09.992Z,18.08
2023-05-21T04:32:11.725Z,18.09
2023-05-21T04:35:17.526Z,18.09
2023-05-21T04:38:19.809Z,18.08
2023-05-21T04:41:21.920Z,18.10
2023-05-21T04:44:23.504Z,18.08
2023-05-21T04:47:25.174Z,18.09
2023-05-21T04:50:30.550Z,18.08
2023-05-21T04:53:32.140Z,18.08
2023-05-21T04:56:33.672Z,18.08
2023-05-21T04:59:36.241Z,18.08
2023-05-21T05:02:37.853Z,18.09
2023-05-21T05:05:40.392Z,18.09
2023-05-21T05:08:42.063Z,18.09
2023-05-21T05:11:43.699Z,18.09
2023-05-21T05:14:45.892Z,18.10
2023-05-21T05:17:50.503Z,18.08
2023-05-21T05:20:52.263Z,18.09
2023-05-21T05:23:54.028Z,18.10
2023-05-21T05:26:59.980Z,18.10
2023-05-21T05:30:01.706Z,18.10
2023-05-21T05:33:03.605Z,18.11
2023-05-21T05:36:05.669Z,18.12
2023-05-21T05:39:07.694Z,18.11
2023-05-21T05:42:09.337Z,18.11
2023-05-21T05:45:11.501Z,18.11
2023-05-21T05:48:14.689Z,18.12
2023-05-21T05:51:17.149Z,18.12
2023-05-21T05:54:19.452Z,18.13
2023-05-21T05:57:21.119Z,18.13
2023-05-21T06:00:26.187Z,18.13
2023-05-21T06:03:28.633Z,18.14
2023-05-21T06:06:31.920Z,18.14
2023-05-21T06:09:33.451Z,18.14
2023-05-21T06:12:35.076Z,18.14
2023-05-21T06:15:37.231Z,18.14
2023-05-21T06:18:39.340Z,18.14
2023-05-21T06:21:41.051Z,18.14
2023-05-21T06:24:42.854Z,18.14
2023-05-21T06:27:45.225Z,18.15
2023-05-21T06:30:54.042Z,18.15
2023-05-21T06:33:55.729Z,18.15
2023-05-21T06:36:57.436Z,18.15
2023-05-21T06:39:58.968Z,18.16
2023-05-21T06:43:05.225Z,18.18
2023-05-21T06:46:25.833Z,18.17
2023-05-21T06:49:27.526Z,18.19
2023-05-21T06:52:29.274Z,18.19
2023-05-21T06:55:31.082Z,18.19
2023-05-21T06:58:56.062Z,18.20
2023-05-21T07:01:57.681Z,18.20
2023-05-21T07:04:59.377Z,18.22
2023-05-21T07:08:00.949Z,18.23
2023-05-21T07:11:02.489Z,18.24
2023-05-21T07:14:04.850Z,18.25
2023-05-21T07:17:08.600Z,18.27
2023-05-21T07:20:11.728Z,18.27
2023-05-21T07:23:16.078Z,18.28
2023-05-21T07:26:17.756Z,18.27
2023-05-21T07:29:20.089Z,18.24
2023-05-21T07:32:21.825Z,18.23
2023-05-21T07:35:23.647Z,18.24
2023-05-21T07:38:26.149Z,18.24
2023-05-21T07:41:27.999Z,18.24
2023-05-21T07:44:29.615Z,18.23
2023-05-21T07:47:31.450Z,18.23
2023-05-21T07:50:33.981Z,18.24
2023-05-21T07:53:35.672Z,18.24
2023-05-21T07:56:40.984Z,18.24
2023-05-21T07:59:45.233Z,18.24
2023-05-21T08:02:47.217Z,18.25
2023-05-21T08:05:50.760Z,18.25
2023-05-21T08:08:54.234Z,18.25
2023-05-21T08:11:55.978Z,18.26
2023-05-21T08:14:58.145Z,18.28
2023-05-21T08:17:59.959Z,18.29
2023-05-21T08:21:02.502Z,18.29
2023-05-21T08:24:04.333Z,18.31
2023-05-21T08:27:07.708Z,18.32
2023-05-21T08:30:11.538Z,18.32
2023-05-21T08:33:13.900Z,18.34
2023-05-21T08:36:15.615Z,18.34
2023-05-21T08:39:24.649Z,18.34
2023-05-21T08:42:51.324Z,18.38
2023-05-21T08:46:05.006Z,18.36
2023-05-21T08:49:13.117Z,18.37
2023-05-21T08:52:15.740Z,18.37
2023-05-21T08:55:18.583Z,18.38
2023-05-21T08:58:20.968Z,18.38
2023-05-21T09:01:24.156Z,18.39
2023-05-21T09:04:58.694Z,18.39
2023-05-21T09:08:09.469Z,18.41
2023-05-21T09:11:20.125Z,18.39
2023-05-21T09:14:28.714Z,18.41
2023-05-21T09:17:51.822Z,18.40
2023-05-21T09:21:30.113Z,18.41
2023-05-21T09:24:36.435Z,18.41
2023-05-21T09:27:40.142Z,18.41
2023-05-21T09:30:52.167Z,18.43
2023-05-21T09:33:55.671Z,18.42
2023-05-21T09:37:01.486Z,18.42
2023-05-21T09:40:10.424Z,18.42
2023-05-21T09:43:16.286Z,18.42
2023-05-21T09:46:25.624Z,18.42
2023-05-21T09:49:28.152Z,18.42
2023-05-21T09:52:31.970Z,18.41
2023-05-21T09:55:36.273Z,18.43
2023-05-21T09:58:38.291Z,18.41
2023-05-21T10:01:39.964Z,18.42
2023-05-21T10:04:43.206Z,18.41
2023-05-21T10:07:50.335Z,18.42
2023-05-21T10:10:52.082Z,18.42
2023-05-21T10:14:19.567Z,18.43
2023-05-21T10:17:23.177Z,18.43
2023-05-21T10:20:25.674Z,18.42
2023-05-21T10:23:28.002Z,18.43
2023-05-21T10:26:30.326Z,18.43
2023-05-21T10:29:32.250Z,18.42
2023-05-21T10:32:34.461Z,18.43
2023-05-21T10:35:38.066Z,18.44
2023-05-21T10:38:41.796Z,18.43
2023-05-21T10:42:16.678Z,18.45
2023-05-21T10:45:21.404Z,18.44
2023-05-21T10:48:31.806Z,18.46
2023-05-21T10:51:45.254Z,18.46
2023-05-21T10:54:58.794Z,18.46
2023-05-21T10:58:00.285Z,18.46
2023-05-21T11:01:03.497Z,18.47
2023-05-21T11:04:06.174Z,18.49
2023-05-21T11:07:08.203Z,18.48
2023-05-21T11:10:39.328Z,18.51
2023-05-21T11:13:51.462Z,18.52
2023-05-21T11:16:58.591Z,18.51
2023-05-21T11:20:05.185Z,18.51
2023-05-21T11:23:06.743Z,18.51
2023-05-21T11:26:08.321Z,18.51
2023-05-21T11:29:11.352Z,18.53
2023-05-21T11:32:15.027Z,18.55
2023-05-21T11:35:16.568Z,18.54
2023-05-21T11:38:18.228Z,18.56
2023-05-21T11:41:20.137Z,18.55
2023-05-21T11:44:39.213Z,18.58
2023-05-21T11:47:41.851Z,18.57
2023-05-21T11:50:43.436Z,18.56
2023-05-21T11:53:45.962Z,18.57
2023-05-21T11:56:48.251Z,18.58
2023-05-21T11:59:53.137Z,18.59
2023-05-21T12:02:56.776Z,18.60
2023-05-21T12:06:05.595Z,18.61
2023-05-21T12:09:07.244Z,18.60
2023-05-21T12:12:09.735Z,18.61
2023-05-21T12:15:13.362Z,18.61
2023-05-21T12:18:16.536Z,18.62
2023-05-21T12:21:18.329Z,18.62
2023-05-21T12:24:19.879Z,18.62
2023-05-21T12:27:22.273Z,18.62
2023-05-21T12:30:27.234Z,18.64
2023-05-21T12:33:37.848Z,18.67
2023-05-21T12:36:39.386Z,18.66
2023-05-21T12:39:43.616Z,18.68
2023-05-21T12:42:45.466Z,18.69
2023-05-21T12:45:47.056Z,18.69
2023-05-21T12:48:58.101Z,18.73
2023-05-21T12:51:59.831Z,18.72
2023-05-21T12:55:01.451Z,18.72
2023-05-21T12:58:10.684Z,18.74
2023-05-21T13:01:12.530Z,18.74
2023-05-21T13:04:14.219Z,18.75
2023-05-21T13:07:16.641Z,18.76
2023-05-21T13:10:18.733Z,18.78
2023-05-21T13:13:20.653Z,18.79
2023-05-21T13:16:24.093Z,18.80
2023-05-21T13:19:26.093Z,18.81
2023-05-21T13:22:27.692Z,18.82
2023-05-21T13:25:29.428Z,18.83
2023-05-21T13:28:31.090Z,18.84
2023-05-21T13:31:32.593Z,18.85
2023-05-21T13:34:34.081Z,18.87
2023-05-21T13:37:36.188Z,18.88
2023-05-21T13:40:39.000Z,18.88
2023-05-21T13:43:44.409Z,18.91
2023-05-21T13:46:46.184Z,18.90
2023-05-21T13:49:47.830Z,18.92
2023-05-21T13:52:49.395Z,18.93
2023-05-21T13:55:51.071Z,18.93
2023-05-21T13:58:52.633Z,18.95
2023-05-21T14:01:54.342Z,18.97
2023-05-21T14:04:55.910Z,18.97
2023-05-21T14:07:57.550Z,18.99
2023-05-21T14:10:59.111Z,19.00
2023-05-21T14:14:01.018Z,19.01
2023-05-21T14:17:02.664Z,19.03
2023-05-21T14:20:04.451Z,19.05
2023-05-21T14:23:06.026Z,19.06
2023-05-21T14:26:07.527Z,19.08
2023-05-21T14:29:09.635Z,19.08
2023-05-21T14:32:11.256Z,19.08
2023-05-21T14:35:12.826Z,19.09
2023-05-21T14:38:14.400Z,19.09
2023-05-21T14:41:15.948Z,19.10
2023-05-21T14:44:17.633Z,19.11
2023-05-21T14:47:19.252Z,19.10
2023-05-21T14:50:20.900Z,19.10
2023-05-21T14:53:22.515Z,19.11
2023-05-21T14:56:27.129Z,19.13
2023-05-21T14:59:28.670Z,19.14
2023-05-21T15:02:30.328Z,19.15
2023-05-21T15:05:32.210Z,19.16
2023-05-21T15:08:33.741Z,19.16
2023-05-21T15:11:35.851Z,19.17
2023-05-21T15:14:38.027Z,19.21
2023-05-21T15:17:39.982Z,19.23
2023-05-21T15:20:41.573Z,19.25
2023-05-21T15:23:43.116Z,19.25
2023-05-21T15:26:44.621Z,19.26
2023-05-21T15:29:46.242Z,19.26
2023-05-21T15:32:47.830Z,19.27
2023-05-21T15:35:49.530Z,19.28
2023-05-21T15:38:51.150Z,19.28
2023-05-21T15:41:53.955Z,19.30
2023-05-21T15:44:55.544Z,19.31
2023-05-21T15:47:57.091Z,19.32
2023-05-21T15:50:58.665Z,19.33
2023-05-21T15:54:00.222Z,19.34
2023-05-21T15:57:01.791Z,19.36
2023-05-21T16:00:04.840Z,19.37
2023-05-21T16:03:10.216Z,19.37
2023-05-21T16:06:11.819Z,19.37
2023-05-21T16:09:14.398Z,19.38
2023-05-21T16:12:15.997Z,19.38
2023-05-21T16:15:17.523Z,19.38
2023-05-21T16:18:19.062Z,19.38
2023-05-21T16:21:20.870Z,19.39
2023-05-21T16:24:22.465Z,19.38
2023-05-21T16:27:24.979Z,19.39
2023-05-21T16:30:26.502Z,19.39
2023-05-21T16:33:28.104Z,19.40
2023-05-21T16:36:29.739Z,19.38
2023-05-21T16:39:31.288Z,19.39
2023-05-21T16:42:32.834Z,19.38
2023-05-21T16:45:42.549Z,19.40
2023-05-21T16:48:44.166Z,19.38
2023-05-21T16:51:45.738Z,19.37
2023-05-21T16:54:48.809Z,19.37
2023-05-21T16:57:50.435Z,19.36
2023-05-21T17:00:52.119Z,19.36
2023-05-21T17:03:55.741Z,19.34
2023-05-21T17:06:57.392Z,19.36
2023-05-21T17:09:58.917Z,19.32
2023-05-21T17:13:09.744Z,19.33
2023-05-21T17:16:19.890Z,19.32
2023-05-21T17:19:21.596Z,19.32
2023-05-21T17:22:23.188Z,19.31
2023-05-21T17:25:25.131Z,19.31
2023-05-21T17:28:26.689Z,19.30
2023-05-21T17:31:31.899Z,19.31
2023-05-21T17:34:33.557Z,19.28
2023-05-21T17:37:35.100Z,19.28
2023-05-21T17:40:36.699Z,19.29
2023-05-21T17:43:38.258Z,19.28
2023-05-21T17:46:39.908Z,19.29
2023-05-21T17:49:41.640Z,19.27
2023-05-21T17:52:43.165Z,19.28
2023-05-21T17:55:44.669Z,19.27
2023-05-21T17:58:46.195Z,19.27
2023-05-21T18:01:47.727Z,19.27
2023-05-21T18:04:49.249Z,19.27
2023-05-21T18:07:50.806Z,19.27
2023-05-21T18:10:52.364Z,19.26
2023-05-21T18:13:54.330Z,19.28
2023-05-21T18:16:56.002Z,19.29
2023-05-21T18:19:57.886Z,19.29
2023-05-21T18:22:59.485Z,19.30
2023-05-21T18:26:01.206Z,19.31
2023-05-21T18:29:02.739Z,19.32
2023-05-21T18:32:04.557Z,19.33
2023-05-21T18:35:10.693Z,19.36
2023-05-21T18:38:13.470Z,19.36
2023-05-21T18:41:15.117Z,19.37
2023-05-21T18:44:16.738Z,19.38
2023-05-21T18:47:18.395Z,19.39
2023-05-21T18:50:20.471Z,19.40
2023-05-21T18:53:22.066Z,19.41
2023-05-21T18:56:23.686Z,19.42
2023-05-21T18:59:25.270Z,19.43
2023-05-21T19:02:28.125Z,19.45
2023-05-21T19:05:30.213Z,19.45
2023-05-21T19:08:31.765Z,19.47
2023-05-21T19:11:34.385Z,19.48
2023-05-21T19:14:36.035Z,19.51
2023-05-21T19:17:39.553Z,19.55
2023-05-21T19:20:41.155Z,19.57
2023-05-21T19:23:52.720Z,19.59
2023-05-21T19:26:55.094Z,19.62
2023-05-21T19:29:56.663Z,19.63
2023-05-21T19:32:58.251Z,19.63
2023-05-21T19:35:59.779Z,19.65
2023-05-21T19:39:01.328Z,19.67
2023-05-21T19:42:03.088Z,19.70
2023-05-21T19:45:09.222Z,19.70
2023-05-21T19:48:11.005Z,19.71
2023-05-21T19:51:13.004Z,19.71
2023-05-21T19:54:14.557Z,19.72
2023-05-21T19:57:16.454Z,19.71
2023-05-21T20:00:18.835Z,19.73
2023-05-21T20:03:20.963Z,19.73
2023-05-21T20:06:22.977Z,19.75
2023-05-21T20:09:24.494Z,19.75
2023-05-21T20:12:26.200Z,19.74
2023-05-21T20:15:28.506Z,19.74
2023-05-21T20:18:30.065Z,19.74
2023-05-21T20:21:31.838Z,19.74
2023-05-21T20:24:33.430Z,19.73
2023-05-21T20:27:35.543Z,19.75
2023-05-21T20:30:52.798Z,19.76
2023-05-21T20:33:54.455Z,19.73
2023-05-21T20:36:58.043Z,19.75
2023-05-21T20:39:59.908Z,19.75
2023-05-21T20:43:01.795Z,19.75
2023-05-21T20:46:05.743Z,19.76
2023-05-21T20:49:07.428Z,19.76
2023-05-21T20:52:09.004Z,19.76
2023-05-21T20:55:12.674Z,19.76
2023-05-21T20:58:14.274Z,19.75
2023-05-21T21:01:17.320Z,19.76
2023-05-21T21:04:18.961Z,19.75
2023-05-21T21:07:20.614Z,19.75
2023-05-21T21:10:22.402Z,19.74
2023-05-21T21:13:23.939Z,19.75
2023-05-21T21:16:25.619Z,19.75
2023-05-21T21:19:27.447Z,19.75
2023-05-21T21:22:29.078Z,19.76
2023-05-21T21:25:31.348Z,19.76
2023-05-21T21:28:32.852Z,19.74
2023-05-21T21:31:34.400Z,19.75
2023-05-21T21:34:35.958Z,19.75
2023-05-21T21:37:37.580Z,19.76
2023-05-21T21:40:39.268Z,19.75
2023-05-21T21:43:41.092Z,19.76
2023-05-21T21:46:42.667Z,19.74
2023-05-21T21:49:44.444Z,19.75
2023-05-21T21:52:46.228Z,19.74
2023-05-21T21:55:47.745Z,19.74
2023-05-21T21:58:49.288Z,19.75
2023-05-21T22:01:50.880Z,19.74
2023-05-21T22:04:52.448Z,19.73
2023-05-21T22:07:53.946Z,19.73
2023-05-21T22:10:56.028Z,19.73
2023-05-21T22:14:03.471Z,19.72
2023-05-21T22:17:08.325Z,19.73
2023-05-21T22:20:10.682Z,19.73
2023-05-21T22:23:12.226Z,19.73
2023-05-21T22:26:13.770Z,19.71
2023-05-21T22:29:15.332Z,19.72
2023-05-21T22:32:16.906Z,19.71
2023-05-21T22:35:18.812Z,19.71
2023-05-21T22:38:20.818Z,19.70
2023-05-21T22:41:22.861Z,19.69
2023-05-21T22:44:24.348Z,19.69
2023-05-21T22:47:26.434Z,19.68
2023-05-21T22:50:29.372Z,19.68
2023-05-21T22:53:32.247Z,19.68
2023-05-21T22:56:33.763Z,19.65
2023-05-21T22:59:35.583Z,19.66
2023-05-21T23:02:37.357Z,19.65
2023-05-21T23:05:39.045Z,19.66
2023-05-21T23:08:41.036Z,19.64
2023-05-21T23:11:42.654Z,19.64
2023-05-21T23:14:44.195Z,19.63
2023-05-21T23:17:45.846Z,19.63
2023-05-21T23:20:47.451Z,19.61
2023-05-21T23:23:49.020Z,19.61
2023-05-21T23:26:50.546Z,19.60
2023-05-21T23:29:52.159Z,19.60
2023-05-21T23:32:53.761Z,19.60
2023-05-21T23:35:55.272Z,19.58
2023-05-21T23:38:56.888Z,19.59
2023-05-21T23:41:58.461Z,19.58
2023-05-21T23:45:00.008Z,19.57
2023-05-21T23:48:01.725Z,19.58
2023-05-21T23:51:03.375Z,19.57
2023-05-21T23:54:05.023Z,19.56
2023-05-21T23:57:06.518Z,19.55
